createdAt,value
2022-12-24T00:01:18.527Z,13.98
2022-12-24T00:04:22.357Z,12.77
2022-12-24T00:07:25.232Z,13.73
2022-12-24T00:10:30.530Z,12.82
2022-12-24T00:13:33.700Z,12.47
2022-12-24T00:16:37.709Z,14.50
2022-12-24T00:19:41.798Z,12.35
2022-12-24T00:22:44.483Z,12.05
2022-12-24T00:25:50.292Z,13.68
2022-12-24T00:28:53.371Z,12.20
2022-12-24T00:31:57.235Z,11.38
2022-12-24T00:35:01.916Z,12.63
2022-12-24T00:38:04.909Z,12.43
2022-12-24T00:41:26.155Z,11.40
2022-12-24T00:44:29.203Z,10.63
2022-12-24T00:47:33.437Z,12.85
2022-12-24T00:50:37.448Z,12.68
2022-12-24T00:53:40.445Z,11.65
2022-12-24T00:56:45.714Z,11.90
2022-12-24T00:59:48.419Z,11.97
2022-12-24T01:02:52.423Z,11.55
2022-12-24T01:05:56.369Z,12.25
2022-12-24T01:08:59.124Z,12.57
2022-12-24T01:12:04.575Z,11.55
2022-12-24T01:15:08.597Z,12.87
2022-12-24T01:18:12.458Z,12.43
2022-12-24T01:21:16.343Z,11.73
2022-12-24T01:24:20.346Z,14.10
2022-12-24T01:27:25.796Z,11.50
2022-12-24T01:30:28.483Z,11.33
2022-12-24T01:33:32.691Z,13.35
2022-12-24T01:36:36.862Z,12.43
2022-12-24T01:39:39.825Z,16.23
2022-12-24T01:43:07.402Z,13.38
2022-12-24T01:46:18.199Z,14.30
2022-12-24T01:49:23.087Z,12.32
2022-12-24T01:52:30.947Z,12.13
2022-12-24T01:55:33.715Z,12.85
2022-12-24T01:58:40.202Z,11.88
2022-12-24T02:01:43.090Z,14.38
2022-12-24T02:04:54.930Z,14.07
2022-12-24T02:07:59.552Z,11.93
2022-12-24T02:11:02.298Z,13.32
2022-12-24T02:14:07.820Z,12.98
2022-12-24T02:17:18.499Z,14.00
2022-12-24T02:20:49.023Z,12.15
2022-12-24T02:24:25.082Z,12.77
2022-12-24T02:27:38.444Z,12.63
2022-12-24T02:30:47.820Z,12.10
2022-12-24T02:33:55.970Z,13.43
2022-12-24T02:37:05.467Z,12.88
2022-12-24T02:40:16.537Z,11.97
2022-12-24T02:46:49.005Z,12.77
2022-12-24T02:49:51.931Z,12.27
2022-12-24T02:52:56.063Z,12.18
2022-12-24T02:56:20.189Z,12.23
2022-12-24T02:59:52.773Z,12.20
2022-12-24T03:03:14.849Z,13.25
2022-12-24T03:06:28.594Z,13.55
2022-12-24T03:09:37.829Z,12.98
2022-12-24T03:12:45.187Z,14.50
2022-12-24T03:15:49.474Z,12.18
2022-12-24T03:18:57.279Z,15.40
2022-12-24T03:22:01.944Z,14.55
2022-12-24T03:25:06.585Z,13.05
2022-12-24T03:28:12.750Z,12.40
2022-12-24T03:31:16.210Z,13.07
2022-12-24T03:34:22.303Z,15.45
2022-12-24T03:37:26.667Z,13.23
2022-12-24T03:40:30.676Z,15.68
2022-12-24T03:43:35.051Z,11.43
2022-12-24T03:46:38.028Z,12.82
2022-12-24T03:49:43.359Z,13.35
2022-12-24T03:52:46.169Z,13.97
2022-12-24T03:55:50.309Z,12.98
2022-12-24T03:58:54.705Z,12.60
2022-12-24T04:01:57.506Z,12.57
2022-12-24T04:05:02.990Z,11.73
2022-12-24T04:08:05.864Z,13.38
2022-12-24T04:11:12.251Z,13.30
2022-12-24T04:14:16.212Z,12.32
2022-12-24T04:17:19.280Z,14.18
2022-12-24T04:20:24.518Z,11.47
2022-12-24T04:23:27.522Z,11.60
2022-12-24T04:26:31.468Z,12.38
2022-12-24T04:29:35.367Z,13.30
2022-12-24T04:32:38.113Z,12.70
2022-12-24T04:35:43.864Z,11.03
2022-12-24T04:38:47.183Z,11.75
2022-12-24T04:41:51.090Z,12.38
2022-12-24T04:44:54.963Z,13.25
2022-12-24T04:47:57.694Z,11.77
2022-12-24T04:51:05.339Z,12.63
2022-12-24T04:54:09.218Z,11.55
2022-12-24T04:57:16.771Z,11.55
2022-12-24T05:00:21.035Z,11.43
2022-12-24T05:03:39.026Z,13.15
2022-12-24T05:06:46.935Z,11.63
2022-12-24T05:09:54.268Z,12.10
2022-12-24T05:12:59.995Z,12.15
2022-12-24T05:16:08.154Z,11.27
2022-12-24T05:19:11.845Z,14.30
2022-12-24T05:22:34.722Z,12.80
2022-12-24T05:29:22.999Z,11.95
2022-12-24T05:32:27.604Z,12.40
2022-12-24T05:35:31.409Z,12.45
2022-12-24T05:38:44.380Z,13.43
2022-12-24T05:41:49.799Z,11.80
2022-12-24T05:48:27.593Z,12.90
2022-12-24T05:51:33.663Z,12.30
2022-12-24T05:54:39.029Z,13.30
2022-12-24T05:57:44.439Z,11.77
2022-12-24T06:00:51.262Z,12.68
2022-12-24T06:07:21.614Z,13.60
2022-12-24T06:10:26.909Z,12.53
2022-12-24T06:13:37.722Z,11.63
2022-12-24T06:16:42.538Z,10.82
2022-12-24T06:19:45.447Z,12.15
2022-12-24T06:22:49.338Z,12.13
2022-12-24T06:25:53.621Z,10.63
2022-12-24T06:28:57.459Z,11.50
2022-12-24T06:32:01.351Z,12.07
2022-12-24T06:35:04.388Z,12.60
2022-12-24T06:38:08.385Z,13.38
2022-12-24T06:41:12.514Z,15.13
2022-12-24T06:44:16.555Z,12.15
2022-12-24T06:47:19.318Z,12.52
2022-12-24T06:50:22.058Z,13.93
2022-12-24T06:53:25.955Z,12.38
2022-12-24T06:56:30.283Z,13.23
2022-12-24T06:59:34.234Z,11.63
2022-12-24T07:02:38.187Z,12.45
2022-12-24T07:05:42.078Z,11.67
2022-12-24T07:08:45.985Z,12.10
2022-12-24T07:11:50.077Z,11.38
2022-12-24T07:14:53.959Z,11.77
2022-12-24T07:17:57.820Z,12.75
2022-12-24T07:21:02.090Z,11.83
2022-12-24T07:24:12.764Z,14.70
2022-12-24T07:27:17.815Z,11.88
2022-12-24T07:30:22.623Z,12.60
2022-12-24T07:33:26.344Z,11.95
2022-12-24T07:36:30.043Z,14.30
2022-12-24T07:39:33.566Z,14.80
2022-12-24T07:42:43.989Z,13.20
2022-12-24T07:45:51.389Z,14.43
2022-12-24T07:48:56.700Z,13.48
2022-12-24T07:52:02.856Z,12.97
2022-12-24T07:55:06.735Z,14.00
2022-12-24T07:58:14.629Z,13.73
2022-12-24T08:01:18.074Z,15.15
2022-12-24T08:04:21.518Z,14.77
2022-12-24T08:07:25.361Z,13.80
2022-12-24T08:10:28.970Z,13.68
2022-12-24T08:13:34.804Z,12.93
2022-12-24T08:16:44.016Z,13.52
2022-12-24T08:19:48.782Z,13.70
2022-12-24T08:22:52.060Z,14.27
2022-12-24T08:25:56.523Z,15.07
2022-12-24T08:29:01.479Z,12.73
2022-12-24T08:32:05.138Z,13.65
2022-12-24T08:35:09.725Z,13.85
2022-12-24T08:38:17.225Z,13.27
2022-12-24T08:41:21.734Z,13.65
2022-12-24T08:44:31.781Z,14.90
2022-12-24T08:47:38.929Z,12.95
2022-12-24T08:50:47.044Z,13.53
2022-12-24T08:53:50.911Z,14.10
2022-12-24T08:56:55.600Z,14.90
2022-12-24T09:00:00.362Z,14.27
2022-12-24T09:03:05.360Z,15.40
2022-12-24T09:06:10.023Z,12.40
2022-12-24T09:09:13.107Z,14.00
2022-12-24T09:12:17.803Z,14.40
2022-12-24T09:15:22.302Z,15.13
2022-12-24T09:18:27.023Z,15.93
2022-12-24T09:21:29.761Z,17.70
2022-12-24T09:24:32.937Z,13.90
2022-12-24T09:27:35.848Z,16.48
2022-12-24T09:30:40.017Z,15.10
2022-12-24T09:33:45.223Z,13.17
2022-12-24T09:36:49.146Z,15.23
2022-12-24T09:39:51.938Z,13.75
2022-12-24T09:42:57.557Z,14.23
2022-12-24T09:46:10.775Z,13.68
2022-12-24T09:52:44.297Z,13.67
2022-12-24T09:55:50.279Z,14.27
2022-12-24T09:58:59.602Z,12.55
2022-12-24T10:02:04.046Z,12.90
2022-12-24T10:05:16.376Z,14.30
2022-12-24T10:08:29.052Z,14.00
2022-12-24T10:11:44.560Z,13.77
2022-12-24T10:15:01.541Z,14.60
2022-12-24T10:18:22.865Z,12.43
2022-12-24T10:21:35.866Z,14.40
2022-12-24T10:24:50.302Z,14.67
2022-12-24T10:27:57.205Z,14.90
2022-12-24T10:31:05.821Z,13.48
2022-12-24T10:34:20.988Z,13.85
2022-12-24T10:37:25.268Z,12.87
2022-12-24T10:40:46.022Z,15.20
2022-12-24T10:43:50.453Z,13.73
2022-12-24T10:46:54.437Z,15.35
2022-12-24T10:50:05.214Z,14.80
2022-12-24T10:53:17.436Z,15.53
2022-12-24T10:56:22.761Z,16.77
2022-12-24T10:59:28.810Z,16.20
2022-12-24T11:02:33.780Z,16.30
2022-12-24T11:05:39.510Z,15.90
2022-12-24T11:08:45.469Z,16.40
2022-12-24T11:11:49.554Z,18.17
2022-12-24T11:18:24.660Z,16.38
2022-12-24T11:21:31.712Z,16.58
2022-12-24T11:24:38.448Z,17.00
2022-12-24T11:27:44.579Z,14.93
2022-12-24T11:31:00.226Z,16.77
2022-12-24T11:34:20.018Z,13.90
2022-12-24T11:37:27.306Z,15.77
2022-12-24T11:40:36.035Z,14.13
2022-12-24T11:43:48.852Z,15.87
2022-12-24T11:46:56.682Z,16.20
2022-12-24T11:50:27.153Z,17.50
2022-12-24T11:53:38.029Z,16.35
2022-12-24T11:56:47.086Z,14.53
2022-12-24T11:59:52.276Z,16.57
2022-12-24T12:03:02.037Z,17.23
2022-12-24T12:06:14.151Z,15.55
2022-12-24T12:09:22.598Z,14.77
2022-12-24T12:12:29.799Z,14.27
2022-12-24T12:15:36.513Z,14.17
2022-12-24T12:18:43.729Z,15.00
2022-12-24T12:21:51.351Z,13.93
2022-12-24T12:24:58.562Z,13.63
2022-12-24T12:28:05.538Z,12.70
2022-12-24T12:31:16.981Z,12.17
2022-12-24T12:41:29.478Z,11.45
2022-12-24T12:44:52.484Z,12.93
2022-12-24T12:48:12.763Z,13.23
2022-12-24T12:51:26.389Z,14.73
2022-12-24T12:54:39.954Z,12.68
2022-12-24T12:57:52.933Z,11.90
2022-12-24T13:01:03.542Z,12.50
2022-12-24T13:04:42.832Z,11.60
2022-12-24T13:08:02.616Z,11.32
2022-12-24T13:11:27.635Z,13.07
2022-12-24T13:14:44.366Z,13.15
2022-12-24T13:18:04.065Z,13.20
2022-12-24T13:21:17.857Z,12.07
2022-12-24T13:24:27.188Z,10.80
2022-12-24T13:27:32.868Z,11.48
2022-12-24T13:30:41.165Z,12.43
2022-12-24T13:33:50.224Z,10.55
2022-12-24T13:37:21.128Z,13.02
2022-12-24T13:40:26.712Z,12.68
2022-12-24T13:44:17.326Z,12.13
2022-12-24T13:47:32.293Z,12.13
2022-12-24T13:50:40.051Z,11.98
2022-12-24T13:53:47.101Z,10.95
2022-12-24T13:56:51.675Z,12.50
2022-12-24T14:00:03.523Z,11.90
2022-12-24T14:03:20.148Z,13.13
2022-12-24T14:06:27.714Z,11.60
2022-12-24T14:09:32.809Z,11.77
2022-12-24T14:12:51.937Z,10.88
2022-12-24T14:16:06.165Z,12.07
2022-12-24T14:19:16.326Z,12.18
2022-12-24T14:22:31.143Z,10.07
2022-12-24T14:25:34.268Z,11.77
2022-12-24T14:28:44.388Z,14.27
2022-12-24T14:31:54.255Z,11.23
2022-12-24T14:35:09.020Z,10.02
2022-12-24T14:38:19.913Z,9.75
2022-12-24T14:41:37.019Z,12.15
2022-12-24T14:44:49.625Z,10.40
2022-12-24T14:48:05.245Z,11.30
2022-12-24T14:51:16.186Z,9.77
2022-12-24T14:54:36.724Z,11.75
2022-12-24T14:57:39.731Z,14.93
2022-12-24T15:00:45.829Z,15.15
2022-12-24T15:04:01.489Z,22.10
2022-12-24T15:07:08.787Z,17.13
2022-12-24T15:10:27.768Z,21.23
2022-12-24T15:13:36.944Z,21.25
2022-12-24T15:16:42.309Z,20.13
2022-12-24T15:19:52.842Z,19.83
2022-12-24T15:23:00.174Z,14.27
2022-12-24T15:26:24.030Z,15.05
2022-12-24T15:29:29.562Z,33.95
2022-12-24T15:32:37.038Z,35.70
2022-12-24T15:39:24.019Z,35.38
2022-12-24T15:42:37.182Z,43.67
2022-12-24T15:45:45.616Z,82.70
2022-12-24T15:48:51.665Z,95.03
2022-12-24T15:51:55.816Z,61.30
2022-12-24T15:54:58.687Z,36.47
2022-12-24T15:58:04.543Z,21.58
2022-12-24T16:01:28.047Z,18.90
2022-12-24T16:04:32.137Z,17.48
2022-12-24T16:08:04.675Z,13.93
2022-12-24T16:11:16.008Z,14.23
2022-12-24T16:14:21.428Z,12.15
2022-12-24T16:17:26.270Z,13.45
2022-12-24T16:23:56.484Z,13.48
2022-12-24T16:26:59.233Z,11.93
2022-12-24T16:30:04.691Z,18.23
2022-12-24T16:33:13.758Z,17.23
2022-12-24T16:36:17.661Z,17.05
2022-12-24T16:43:04.465Z,12.53
2022-12-24T16:46:10.129Z,15.07
2022-12-24T16:49:16.813Z,13.18
2022-12-24T16:52:23.281Z,12.65
2022-12-24T16:55:27.178Z,12.50
2022-12-24T16:58:30.492Z,10.80
2022-12-24T17:01:35.953Z,13.63
2022-12-24T17:04:39.518Z,13.32
2022-12-24T17:07:44.438Z,14.20
2022-12-24T17:10:52.322Z,21.42
2022-12-24T17:13:56.202Z,22.07
2022-12-24T17:17:00.328Z,17.02
2022-12-24T17:20:05.738Z,16.90
2022-12-24T17:23:09.590Z,18.08
2022-12-24T17:26:15.218Z,18.33
2022-12-24T17:29:19.272Z,15.97
2022-12-24T17:32:23.373Z,15.57
2022-12-24T17:35:26.081Z,14.18
2022-12-24T17:38:28.848Z,15.23
2022-12-24T17:41:32.730Z,19.52
2022-12-24T17:44:36.669Z,18.50
2022-12-24T17:47:41.290Z,16.25
2022-12-24T17:50:45.232Z,17.38
2022-12-24T17:53:48.179Z,16.50
2022-12-24T17:56:52.230Z,15.95
2022-12-24T17:59:56.196Z,16.20
2022-12-24T18:03:00.378Z,19.83
2022-12-24T18:06:06.125Z,46.25
2022-12-24T18:09:08.967Z,46.33
2022-12-24T18:12:12.950Z,36.15
2022-12-24T18:15:20.743Z,33.00
2022-12-24T18:18:24.809Z,33.28
2022-12-24T18:21:30.839Z,28.67
2022-12-24T18:24:33.583Z,24.55
2022-12-24T18:27:37.786Z,22.23
2022-12-24T18:30:41.687Z,22.27
2022-12-24T18:33:47.495Z,22.58
2022-12-24T18:36:55.287Z,22.10
2022-12-24T18:39:58.658Z,19.42
2022-12-24T18:43:02.682Z,16.75
2022-12-24T18:46:09.340Z,17.30
2022-12-24T18:49:13.502Z,14.15
2022-12-24T18:52:22.614Z,16.30
2022-12-24T18:55:25.641Z,16.60
2022-12-24T18:58:29.590Z,18.00
2022-12-24T19:01:35.713Z,15.83
2022-12-24T19:04:39.980Z,13.55
2022-12-24T19:07:44.024Z,17.17
2022-12-24T19:10:47.967Z,16.70
2022-12-24T19:13:53.116Z,17.45
2022-12-24T19:16:57.264Z,12.83
2022-12-24T19:20:01.468Z,13.35
2022-12-24T19:23:05.464Z,15.07
2022-12-24T19:26:08.422Z,14.23
2022-12-24T19:29:12.429Z,15.00
2022-12-24T19:32:16.444Z,15.65
2022-12-24T19:35:20.538Z,13.15
2022-12-24T19:38:24.570Z,12.43
2022-12-24T19:41:29.218Z,12.63
2022-12-24T19:44:33.366Z,13.23
2022-12-24T19:47:36.095Z,13.63
2022-12-24T19:50:41.406Z,12.43
2022-12-24T19:53:45.543Z,15.02
2022-12-24T19:56:48.263Z,12.07
2022-12-24T19:59:52.235Z,16.23
2022-12-24T20:02:56.336Z,16.20
2022-12-24T20:06:00.593Z,17.13
2022-12-24T20:09:07.131Z,13.70
2022-12-24T20:12:09.979Z,13.27
2022-12-24T20:15:14.075Z,12.13
2022-12-24T20:18:18.080Z,13.50
2022-12-24T20:21:22.540Z,13.13
2022-12-24T20:24:25.488Z,15.82
2022-12-24T20:27:28.384Z,14.93
2022-12-24T20:30:33.260Z,12.60
2022-12-24T20:33:37.586Z,11.13
2022-12-24T20:36:41.796Z,14.50
2022-12-24T20:39:45.779Z,12.52
2022-12-24T20:42:49.742Z,12.00
2022-12-24T20:45:52.944Z,10.40
2022-12-24T20:48:58.074Z,10.73
2022-12-24T20:52:02.155Z,12.43
2022-12-24T20:55:06.582Z,15.68
2022-12-24T20:58:12.180Z,10.93
2022-12-24T21:01:18.597Z,13.03
2022-12-24T21:04:23.749Z,13.55
2022-12-24T21:07:27.886Z,10.65
2022-12-24T21:10:34.433Z,10.15
2022-12-24T21:13:37.646Z,10.53
2022-12-24T21:16:41.469Z,8.30
2022-12-24T21:19:45.596Z,9.50
2022-12-24T21:22:49.670Z,11.23
2022-12-24T21:26:02.107Z,10.55
2022-12-24T21:29:07.987Z,11.03
2022-12-24T21:32:10.675Z,10.50
2022-12-24T21:35:14.794Z,10.52
2022-12-24T21:38:18.857Z,9.25
2022-12-24T21:41:25.187Z,7.18
2022-12-24T21:44:29.186Z,10.80
2022-12-24T21:47:32.016Z,8.27
2022-12-24T21:50:53.716Z,10.25
2022-12-24T21:54:18.110Z,12.88
2022-12-24T21:57:39.509Z,11.38
2022-12-24T22:04:04.091Z,10.17
2022-12-24T22:07:25.873Z,8.45
2022-12-24T22:10:47.399Z,9.45
2022-12-24T22:13:51.372Z,11.32
2022-12-24T22:16:55.360Z,9.17
2022-12-24T22:19:58.106Z,8.27
2022-12-24T22:23:02.088Z,9.63
2022-12-24T22:26:14.418Z,9.15
2022-12-24T22:29:19.149Z,8.88
2022-12-24T22:32:24.609Z,7.93
2022-12-24T22:35:27.889Z,8.70
2022-12-24T22:38:32.601Z,10.20
2022-12-24T22:41:37.158Z,10.18
2022-12-24T22:44:41.798Z,8.65
2022-12-24T22:47:45.989Z,12.07
2022-12-24T22:50:49.215Z,10.73
2022-12-24T22:53:53.821Z,8.63
2022-12-24T22:56:58.553Z,9.77
2022-12-24T23:00:03.087Z,11.77
2022-12-24T23:03:08.519Z,9.50
2022-12-24T23:06:12.675Z,13.73
2022-12-24T23:09:18.262Z,11.88
2022-12-24T23:12:44.159Z,9.57
2022-12-24T23:15:49.571Z,9.90
2022-12-24T23:18:54.712Z,13.23
2022-12-24T23:21:58.103Z,14.93
2022-12-24T23:25:02.489Z,11.57
2022-12-24T23:28:07.240Z,11.10
2022-12-24T23:31:11.780Z,13.75
2022-12-24T23:34:16.019Z,9.57
2022-12-24T23:37:19.172Z,12.43
2022-12-24T23:40:24.252Z,11.15
2022-12-24T23:43:29.161Z,13.93
2022-12-24T23:46:33.805Z,11.48
2022-12-24T23:49:38.271Z,11.73
2022-12-24T23:52:41.512Z,11.93
2022-12-24T23:55:46.493Z,9.63
2022-12-24T23:58:52.134Z,10.80
